Time;durP1;ratioP1;P1;durP2;ratioP2;P2;SDS_P1;SDS_P2;PMS_P1;PMS_P2;Temp;Humidity;BMP_temperature;BMP_pressure;BME280_temperature;BME280_humidity;BME280_pressure;Samples;Min_cycle;Max_cycle;Signal;HPM_P1;HPM_P2
2022/06/23 00:01:21;;;;;;;7.32;6.00;;;13.00;99.90;;;;;;6172622;23;20048;-91
2022/06/23 00:03:54;;;;;;;7.88;5.57;;;13.00;99.90;;;;;;6175343;23;20037;-91
2022/06/23 00:06:38;;;;;;;6.32;5.57;;;13.00;99.90;;;;;;6171838;23;20059;-92
2022/06/23 00:09:35;;;;;;;6.20;5.07;;;13.10;99.90;;;;;;6176340;23;20339;-91
2022/06/23 00:12:17;;;;;;;6.28;5.35;;;13.20;99.90;;;;;;6174068;23;20290;-91
2022/06/23 00:14:49;;;;;;;6.15;5.28;;;13.20;99.90;;;;;;6167164;23;20050;-91
2022/06/23 00:17:31;;;;;;;7.55;6.10;;;13.20;99.90;;;;;;6144517;23;20027;-91
2022/06/23 00:20:19;;;;;;;7.43;5.82;;;13.20;99.90;;;;;;6171038;23;20016;-91
2022/06/23 00:22:56;;;;;;;5.75;5.07;;;13.20;99.90;;;;;;6173446;23;19997;-91
2022/06/23 00:25:59;;;;;;;6.80;5.43;;;13.20;99.90;;;;;;6167907;23;20019;-91
2022/06/23 00:28:31;;;;;;;7.22;5.90;;;13.30;99.90;;;;;;6166759;23;20049;-91
2022/06/23 00:31:03;;;;;;;8.32;5.40;;;13.20;99.90;;;;;;6165706;23;20370;-91
2022/06/23 00:33:40;;;;;;;6.53;5.82;;;13.30;99.90;;;;;;6167517;23;20028;-91
2022/06/23 00:36:30;;;;;;;6.72;5.68;;;13.20;99.90;;;;;;6175365;23;20002;-91
2022/06/23 00:38:59;;;;;;;6.45;5.72;;;13.20;99.90;;;;;;6177558;23;20019;-91
2022/06/23 00:41:32;;;;;;;6.93;6.07;;;13.20;99.90;;;;;;6151748;23;20088;-91
2022/06/23 00:44:04;;;;;;;8.27;6.65;;;13.20;99.90;;;;;;6192143;23;20375;-92
2022/06/23 00:46:48;;;;;;;6.70;6.00;;;13.20;99.90;;;;;;6192546;23;20351;-91
2022/06/23 00:49:52;;;;;;;6.57;5.90;;;13.20;99.90;;;;;;6167193;23;20016;-92
2022/06/23 00:52:39;;;;;;;6.72;5.65;;;13.10;99.90;;;;;;6154565;23;20017;-92
2022/06/23 00:55:29;;;;;;;6.93;5.93;;;13.20;99.90;;;;;;6166451;23;20020;-91
2022/06/23 00:58:03;;;;;;;7.18;6.30;;;13.20;99.90;;;;;;6167705;23;20039;-91
2022/06/23 01:00:39;;;;;;;8.05;6.30;;;13.10;99.90;;;;;;6169347;23;20012;-92
2022/06/23 01:03:22;;;;;;;7.65;6.85;;;13.10;99.90;;;;;;6168224;23;20066;-92
2022/06/23 01:05:59;;;;;;;6.53;5.68;;;13.10;99.90;;;;;;6167678;23;20016;-92
2022/06/23 01:08:40;;;;;;;7.20;6.18;;;13.10;99.90;;;;;;6167807;23;20107;-92
2022/06/23 01:11:28;;;;;;;7.45;6.07;;;13.10;99.90;;;;;;6167176;23;20023;-91
2022/06/23 01:14:36;;;;;;;7.50;6.32;;;13.10;99.90;;;;;;6166804;23;20406;-92
2022/06/23 01:17:41;;;;;;;6.55;5.85;;;13.00;99.90;;;;;;6160142;23;20447;-92
2022/06/23 01:20:20;;;;;;;6.57;5.53;;;13.00;99.90;;;;;;6168713;23;20092;-91
2022/06/23 01:22:49;;;;;;;7.80;6.47;;;13.00;99.90;;;;;;6168189;23;20338;-92
2022/06/23 01:25:52;;;;;;;7.47;6.68;;;13.00;99.90;;;;;;6166933;23;20067;-91
2022/06/23 01:28:20;;;;;;;8.02;6.63;;;13.00;99.90;;;;;;6168268;23;20016;-91
2022/06/23 01:30:53;;;;;;;7.10;6.40;;;12.90;99.90;;;;;;6169719;23;20017;-92
2022/06/23 01:33:28;;;;;;;8.50;6.78;;;13.00;99.90;;;;;;6170229;23;20012;-91
2022/06/23 01:36:07;;;;;;;;;;;13.00;99.90;;;;;;6169998;23;20028;-91
2022/06/23 01:38:55;;;;;;;6.82;6.10;;;13.00;99.90;;;;;;6172148;23;19916;-92
2022/06/23 01:41:47;;;;;;;6.45;5.25;;;13.00;99.90;;;;;;6168350;23;20013;-92
2022/06/23 01:44:18;;;;;;;7.85;7.05;;;12.90;99.90;;;;;;6169784;23;20074;-92
2022/06/23 01:46:49;;;;;;;7.55;6.75;;;12.90;99.90;;;;;;6170073;23;20020;-92
2022/06/23 01:49:20;;;;;;;8.80;6.32;;;12.80;99.90;;;;;;6168462;23;20023;-92
2022/06/23 01:51:52;;;;;;;8.90;6.47;;;12.80;99.90;;;;;;6167451;23;20016;-92
2022/06/23 01:54:23;;;;;;;7.35;6.10;;;12.80;99.90;;;;;;6169099;23;20013;-91
2022/06/23 01:57:20;;;;;;;6.95;6.25;;;12.80;99.90;;;;;;6166982;23;20047;-92
2022/06/23 01:59:55;;;;;;;6.90;6.20;;;12.70;99.90;;;;;;6169918;23;20013;-91
2022/06/23 02:02:50;;;;;;;6.53;5.75;;;12.90;99.90;;;;;;6169877;23;20096;-90
2022/06/23 02:05:22;;;;;;;6.72;6.03;;;12.90;99.90;;;;;;6152443;23;20084;-90
2022/06/23 02:08:26;;;;;;;9.45;6.00;;;12.90;99.90;;;;;;6167948;23;20044;-91
2022/06/23 02:11:01;;;;;;;7.55;6.43;;;12.90;99.90;;;;;;6166883;23;20023;-92
2022/06/23 02:13:44;;;;;;;8.30;6.43;;;12.80;99.90;;;;;;6168379;23;20020;-91
2022/06/23 02:16:32;;;;;;;6.82;6.10;;;12.70;99.90;;;;;;6171828;23;20023;-92
2022/06/23 02:19:17;;;;;;;7.07;6.38;;;12.70;99.90;;;;;;6173663;23;20044;-92
2022/06/23 02:21:50;;;;;;;7.50;6.30;;;12.70;99.90;;;;;;6168044;23;20016;-92
2022/06/23 02:25:01;;;;;;;9.25;6.15;;;12.60;99.90;;;;;;6166754;23;20095;-91
2022/06/23 02:27:40;;;;;;;9.10;6.80;;;12.70;99.90;;;;;;6138614;23;20058;-92
2022/06/23 02:30:11;;;;;;;8.15;6.25;;;12.70;99.90;;;;;;6167809;23;20056;-92
2022/06/23 02:33:13;;;;;;;9.00;6.32;;;12.60;99.90;;;;;;6165986;23;20017;-93
2022/06/23 02:36:04;;;;;;;7.88;7.05;;;12.60;99.90;;;;;;6171426;23;20016;-92
2022/06/23 02:38:52;;;;;;;9.80;6.55;;;12.50;99.90;;;;;;6168251;23;20020;-94
2022/06/23 02:41:26;;;;;;;8.65;6.93;;;12.50;99.90;;;;;;6166501;23;20009;-93
2022/06/23 02:44:05;;;;;;;9.38;7.35;;;12.50;99.90;;;;;;6166109;23;20017;-92
2022/06/23 02:46:59;;;;;;;9.50;7.80;;;12.50;99.90;;;;;;6171963;23;20016;-93
2022/06/23 02:49:46;;;;;;;11.48;7.63;;;12.50;99.90;;;;;;6169055;23;20499;-92
2022/06/23 02:52:31;;;;;;;7.65;6.53;;;12.50;99.90;;;;;;6165490;23;20092;-92
2022/06/23 02:55:04;;;;;;;10.93;8.38;;;12.50;99.90;;;;;;6170736;23;20013;-92
2022/06/23 02:57:42;;;;;;;11.65;7.35;;;12.50;99.90;;;;;;6172005;23;20012;-94
2022/06/23 03:00:28;;;;;;;11.63;7.20;;;12.60;99.90;;;;;;6169767;23;20044;-92
2022/06/23 03:02:57;;;;;;;10.35;7.43;;;12.60;99.90;;;;;;6168504;23;20052;-93
2022/06/23 03:05:41;;;;;;;9.70;7.95;;;12.60;99.90;;;;;;6170290;23;20020;-92
2022/06/23 03:08:23;;;;;;;11.13;6.95;;;12.60;99.90;;;;;;6170302;23;20059;-92
2022/06/23 03:11:06;;;;;;;8.95;6.80;;;12.60;99.90;;;;;;6168527;23;20063;-93
2022/06/23 03:13:46;;;;;;;8.70;7.35;;;12.60;99.90;;;;;;6172409;23;20020;-93
2022/06/23 03:16:31;;;;;;;9.02;7.00;;;12.60;99.90;;;;;;6178961;23;20017;-92
2022/06/23 03:19:05;;;;;;;9.45;7.60;;;12.60;99.90;;;;;;6172258;23;20009;-92
2022/06/23 03:21:48;;;;;;;8.18;7.22;;;12.70;99.90;;;;;;6168875;23;20013;-93
2022/06/23 03:24:28;;;;;;;;;;;12.70;99.90;;;;;;6171436;23;20028;-91
2022/06/23 03:27:27;;;;;;;9.32;7.68;;;12.70;99.90;;;;;;6168634;23;19995;-93
2022/06/23 03:30:05;;;;;;;8.45;6.40;;;12.70;99.90;;;;;;6169381;23;20095;-93
2022/06/23 03:32:42;;;;;;;9.63;7.65;;;12.70;99.90;;;;;;6168307;23;20020;-92
2022/06/23 03:35:39;;;;;;;8.38;7.38;;;12.60;99.90;;;;;;6168091;23;20020;-92
2022/06/23 03:41:36;;;;;;;11.20;7.38;;;12.70;99.90;;;;;;6167878;23;20008;-91
2022/06/23 03:44:20;;;;;;;9.98;7.50;;;12.60;99.90;;;;;;6189813;23;20056;-92
2022/06/23 03:46:56;;;;;;;9.90;8.07;;;12.70;99.90;;;;;;6166282;23;20012;-93
2022/06/23 03:49:40;;;;;;;9.20;8.25;;;12.70;99.90;;;;;;6165272;23;20016;-92
2022/06/23 03:52:18;;;;;;;9.40;7.65;;;12.70;99.90;;;;;;6167270;23;20013;-92
2022/06/23 03:54:50;;;;;;;11.45;8.88;;;12.80;99.90;;;;;;6167427;23;20016;-91
2022/06/23 03:57:43;;;;;;;11.10;9.40;;;12.80;99.90;;;;;;6167923;23;20043;-94
2022/06/23 04:00:19;;;;;;;10.93;8.80;;;12.90;99.90;;;;;;6172551;23;20021;-91
2022/06/23 04:03:24;;;;;;;14.75;9.00;;;12.90;99.90;;;;;;6168953;23;20012;-92
2022/06/23 04:05:56;;;;;;;12.63;9.63;;;12.90;99.90;;;;;;6167459;23;20016;-91
2022/06/23 04:08:34;;;;;;;13.43;10.30;;;12.90;99.90;;;;;;6167172;23;20095;-91
2022/06/23 04:13:54;;;;;;;16.10;11.20;;;13.00;99.90;;;;;;6199029;23;20075;-91
2022/06/23 04:16:24;;;;;;;12.23;10.95;;;13.00;99.90;;;;;;6140768;23;20013;-91
2022/06/23 04:18:51;;;;;;;11.50;10.23;;;13.10;99.90;;;;;;6166415;23;20070;-90
2022/06/23 04:21:25;;;;;;;12.90;10.98;;;13.10;99.90;;;;;;6142532;23;20092;-91
2022/06/23 04:24:00;;;;;;;13.20;10.35;;;12.60;99.90;;;;;;6172896;23;20036;-91
2022/06/23 04:26:32;;;;;;;13.55;10.07;;;13.20;99.90;;;;;;6167432;23;20001;-91
2022/06/23 04:29:09;;;;;;;15.75;11.55;;;13.20;99.90;;;;;;6165055;23;20019;-90
2022/06/23 04:31:46;;;;;;;13.73;11.30;;;13.20;99.90;;;;;;6189076;23;20112;-92
2022/06/23 04:34:27;;;;;;;12.30;10.98;;;13.30;99.90;;;;;;6169359;23;20025;-90
2022/06/23 04:36:54;;;;;;;13.23;10.57;;;13.40;99.90;;;;;;6166822;23;20017;-90
2022/06/23 04:39:43;;;;;;;13.55;10.60;;;13.40;99.90;;;;;;6141041;23;20009;-91
2022/06/23 04:42:25;;;;;;;11.98;9.57;;;13.50;99.90;;;;;;6165308;23;19996;-92
2022/06/23 04:45:00;;;;;;;11.57;10.32;;;13.50;99.90;;;;;;6166141;23;20012;-92
2022/06/23 04:47:31;;;;;;;11.70;8.70;;;13.60;99.90;;;;;;6165160;23;20027;-92
2022/06/23 04:50:10;;;;;;;12.90;9.40;;;13.70;99.90;;;;;;6140856;23;20390;-93
2022/06/23 04:52:54;;;;;;;11.50;9.60;;;13.70;99.90;;;;;;6165055;23;20507;-90
2022/06/23 04:55:30;;;;;;;12.35;9.13;;;13.80;99.90;;;;;;6164984;23;20013;-93
2022/06/23 04:58:22;;;;;;;11.32;9.00;;;13.90;99.90;;;;;;6164898;23;20451;-92
2022/06/23 05:00:53;;;;;;;10.65;8.02;;;13.90;99.90;;;;;;6167900;23;20017;-92
2022/06/23 05:03:34;;;;;;;11.82;9.75;;;14.00;99.90;;;;;;6143259;23;20020;-93
2022/06/23 05:06:11;;;;;;;11.23;8.88;;;14.00;99.90;;;;;;6164969;23;20091;-91
2022/06/23 05:08:40;;;;;;;11.63;9.60;;;14.10;99.90;;;;;;6164459;23;20051;-91
2022/06/23 05:11:32;;;;;;;13.55;10.27;;;14.10;99.90;;;;;;6164269;23;20024;-93
2022/06/23 05:14:14;;;;;;;11.73;10.02;;;14.20;99.90;;;;;;6164681;23;20013;-91
2022/06/23 05:16:47;;;;;;;11.60;9.20;;;14.30;99.90;;;;;;6164064;23;20415;-91
2022/06/23 05:19:22;;;;;;;15.38;9.68;;;14.30;99.90;;;;;;6164766;23;20060;-92
2022/06/23 05:21:53;;;;;;;13.23;10.23;;;14.40;99.90;;;;;;6164743;23;20446;-91
2022/06/23 05:24:27;;;;;;;12.55;10.10;;;14.40;99.90;;;;;;6164610;23;20068;-90
2022/06/23 05:26:57;;;;;;;11.88;9.50;;;14.50;99.90;;;;;;6167316;23;20021;-91
2022/06/23 05:29:50;;;;;;;11.25;8.77;;;14.50;99.90;;;;;;6166308;23;20017;-91
2022/06/23 05:32:31;;;;;;;12.30;9.52;;;14.60;99.90;;;;;;6166292;23;20023;-91
2022/06/23 05:35:09;;;;;;;11.25;9.52;;;14.60;99.90;;;;;;6168780;23;20324;-90
2022/06/23 05:37:54;;;;;;;11.80;10.32;;;14.70;99.90;;;;;;6167367;23;20013;-91
2022/06/23 05:40:40;;;;;;;12.02;9.88;;;14.70;99.90;;;;;;6168621;23;20362;-91
2022/06/23 05:43:11;;;;;;;11.75;10.02;;;14.80;99.90;;;;;;6166778;23;20091;-91
2022/06/23 05:45:49;;;;;;;12.13;9.43;;;14.90;99.90;;;;;;6165700;23;20016;-91
2022/06/23 05:48:24;;;;;;;14.10;10.30;;;14.90;99.90;;;;;;6165118;23;20016;-92
2022/06/23 05:51:10;;;;;;;14.32;9.68;;;15.00;99.90;;;;;;6173331;23;20481;-91
2022/06/23 05:53:48;;;;;;;11.27;9.57;;;15.00;99.90;;;;;;6175742;23;20017;-92
2022/06/23 05:56:33;;;;;;;11.63;9.55;;;15.10;99.90;;;;;;6167344;23;20091;-92
2022/06/23 05:59:17;;;;;;;12.75;9.20;;;15.20;99.90;;;;;;6169749;23;20013;-91
2022/06/23 06:01:52;;;;;;;11.95;9.45;;;15.30;99.90;;;;;;6181736;23;20059;-90
2022/06/23 06:04:31;;;;;;;12.80;9.55;;;15.30;99.90;;;;;;6177306;23;20017;-92
2022/06/23 06:06:59;;;;;;;12.63;10.07;;;15.40;99.90;;;;;;6175580;23;20016;-89
2022/06/23 06:09:41;;;;;;;11.25;10.02;;;15.50;99.90;;;;;;6175046;23;20095;-90
2022/06/23 06:12:23;;;;;;;12.32;9.93;;;15.60;99.90;;;;;;6167593;23;20044;-89
2022/06/23 06:14:59;;;;;;;13.23;9.63;;;15.70;99.90;;;;;;6178421;23;20036;-90
2022/06/23 06:17:29;;;;;;;11.60;8.90;;;15.80;99.90;;;;;;6169740;23;20013;-91
2022/06/23 06:19:59;;;;;;;11.57;9.23;;;15.80;99.90;;;;;;6181321;23;20091;-91
2022/06/23 06:22:47;;;;;;;11.75;9.35;;;15.90;99.90;;;;;;6168744;23;20015;-89
2022/06/23 06:25:23;;;;;;;11.63;9.70;;;16.20;99.90;;;;;;6173269;23;20048;-90
2022/06/23 06:27:50;;;;;;;11.38;10.00;;;16.20;99.90;;;;;;6171314;23;20016;-90
2022/06/23 06:30:21;;;;;;;12.15;9.18;;;16.30;99.90;;;;;;6168379;23;20016;-90
2022/06/23 06:32:48;;;;;;;11.55;8.60;;;16.40;99.90;;;;;;6171392;23;20415;-90
2022/06/23 06:35:36;;;;;;;11.32;9.48;;;16.50;99.90;;;;;;6146164;23;20023;-91
2022/06/23 06:38:17;;;;;;;11.77;8.38;;;16.70;99.90;;;;;;6173234;23;20012;-91
2022/06/23 06:40:50;;;;;;;10.00;8.88;;;16.90;99.90;;;;;;6174841;23;20017;-91
2022/06/23 06:43:35;;;;;;;;;;;;;;;;;;;;;
2022/06/23 06:46:02;;;;;;;9.85;8.55;;;17.40;99.90;;;;;;6200349;23;20289;-90
2022/06/23 06:48:36;;;;;;;12.18;8.75;;;17.60;99.90;;;;;;6153615;23;20016;-88
2022/06/23 06:51:06;;;;;;;;;;;17.70;99.90;;;;;;6173514;23;20069;-91
2022/06/23 06:53:38;;;;;;;9.15;7.63;;;18.10;99.90;;;;;;6170018;23;20388;-88
2022/06/23 06:56:12;;;;;;;9.38;8.30;;;18.40;99.90;;;;;;6203104;23;20075;-92
2022/06/23 06:58:55;;;;;;;9.77;7.97;;;18.50;99.90;;;;;;6176779;23;20040;-93
2022/06/23 07:01:27;;;;;;;9.75;8.07;;;18.60;99.90;;;;;;6184573;23;20005;-92
2022/06/23 07:03:58;;;;;;;11.73;8.20;;;18.70;99.90;;;;;;6180715;23;20474;-91
2022/06/23 07:06:40;;;;;;;11.38;7.95;;;18.80;99.90;;;;;;6147873;23;20009;-90
2022/06/23 07:09:28;;;;;;;10.45;8.30;;;19.00;99.90;;;;;;6182001;23;20044;-88
2022/06/23 07:12:20;;;;;;;13.82;8.70;;;19.00;99.90;;;;;;6183873;23;20035;-91
2022/06/23 07:15:11;;;;;;;11.25;7.47;;;19.20;99.90;;;;;;6201515;23;20031;-90
2022/06/23 07:18:04;;;;;;;7.78;6.93;;;19.40;99.90;;;;;;6174374;23;20016;-89
2022/06/23 07:20:51;;;;;;;8.98;8.07;;;19.50;99.90;;;;;;6172975;23;20036;-89
2022/06/23 07:23:29;;;;;;;9.75;7.43;;;19.50;99.90;;;;;;6172358;23;20047;-92
2022/06/23 07:26:17;;;;;;;9.10;7.72;;;19.70;99.90;;;;;;6175704;23;20038;-93
2022/06/23 07:28:50;;;;;;;8.68;7.22;;;19.70;99.90;;;;;;6171851;23;20016;-92
2022/06/23 07:31:32;;;;;;;7.40;6.70;;;19.90;99.90;;;;;;6173584;23;20035;-93
2022/06/23 07:34:04;;;;;;;7.15;6.45;;;20.00;99.90;;;;;;6174754;23;20024;-93
2022/06/23 07:36:40;;;;;;;8.18;7.38;;;19.90;99.90;;;;;;6173307;23;20020;-89
2022/06/23 07:39:27;;;;;;;9.35;7.32;;;20.20;99.90;;;;;;6172073;23;20013;-94
2022/06/23 07:41:56;;;;;;;9.15;6.72;;;19.90;99.90;;;;;;6173109;23;20013;-93
2022/06/23 07:44:47;;;;;;;8.70;7.00;;;19.90;99.90;;;;;;6175606;23;20004;-93
2022/06/23 07:47:16;;;;;;;9.77;6.68;;;20.30;99.90;;;;;;6182509;23;20024;-92
2022/06/23 07:49:52;;;;;;;9.32;7.07;;;20.70;99.90;;;;;;6182939;23;20055;-94
2022/06/23 07:52:43;;;;;;;6.22;5.50;;;20.50;99.90;;;;;;6221946;23;20044;-91
2022/06/23 07:59:11;;;;;;;6.97;6.28;;;20.80;99.90;;;;;;6190266;23;20020;-91
2022/06/23 08:01:45;;;;;;;8.68;6.38;;;21.20;99.90;;;;;;6168854;23;20307;-87
2022/06/23 08:04:52;;;;;;;6.90;6.20;;;21.10;99.90;;;;;;6182998;23;20017;-91
2022/06/23 08:07:20;;;;;;;6.50;5.82;;;21.20;99.90;;;;;;6175668;23;20012;-90
2022/06/23 08:09:52;;;;;;;7.13;6.03;;;21.40;99.90;;;;;;6172117;23;20482;-88
2022/06/23 08:18:18;;;;;;;6.30;5.30;;;21.20;99.90;;;;;;6192506;23;19919;-90
2022/06/23 08:20:52;;;;;;;6.15;5.53;;;21.50;99.90;;;;;;6173582;23;20347;-91
2022/06/23 08:23:25;;;;;;;;;;;21.60;99.90;;;;;;6167365;23;20339;-90
2022/06/23 08:26:02;;;;;;;6.20;5.10;;;21.70;99.90;;;;;;6166782;23;20011;-88
2022/06/23 08:28:29;;;;;;;8.10;6.30;;;21.90;99.90;;;;;;6150135;23;20017;-89
2022/06/23 08:30:55;;;;;;;6.63;5.85;;;22.10;99.90;;;;;;6118905;23;20008;-89
2022/06/23 08:33:25;;;;;;;7.68;5.43;;;22.10;99.90;;;;;;6165081;23;20012;-90
2022/06/23 08:35:56;;;;;;;7.18;6.00;;;22.20;99.90;;;;;;6141381;23;20443;-89
2022/06/23 08:38:55;;;;;;;6.60;5.68;;;22.20;99.90;;;;;;6179631;23;20020;-89
2022/06/23 08:41:30;;;;;;;7.45;5.40;;;22.40;99.90;;;;;;6188110;23;20028;-90
2022/06/23 08:44:41;;;;;;;5.90;5.13;;;22.40;99.90;;;;;;6188296;23;20041;-91
2022/06/23 08:47:11;;;;;;;6.18;4.85;;;22.40;99.90;;;;;;6169790;23;20012;-89
2022/06/23 08:49:52;;;;;;;5.82;4.90;;;22.60;99.90;;;;;;6166075;23;20454;-88
2022/06/23 08:52:54;;;;;;;7.35;5.60;;;22.70;99.90;;;;;;6169610;23;20017;-89
2022/06/23 08:55:43;;;;;;;6.22;5.13;;;22.60;99.90;;;;;;6163531;23;20038;-88
2022/06/23 08:58:35;;;;;;;6.30;4.65;;;23.20;99.90;;;;;;6167299;23;20142;-88
2022/06/23 09:01:36;;;;;;;6.90;5.63;;;23.40;99.90;;;;;;6167865;23;20012;-87
2022/06/23 09:04:31;;;;;;;5.35;4.85;;;23.70;99.90;;;;;;6118978;23;20017;-90
2022/06/23 09:07:17;;;;;;;5.75;4.53;;;24.00;99.90;;;;;;6169446;23;20092;-88
2022/06/23 09:10:10;;;;;;;6.80;5.20;;;24.30;99.90;;;;;;6167117;23;20013;-90
2022/06/23 09:12:44;;;;;;;4.97;4.47;;;24.60;99.90;;;;;;6169142;23;20044;-91
2022/06/23 09:15:37;;;;;;;8.57;5.03;;;24.70;99.90;;;;;;6171788;23;20514;-91
2022/06/23 09:18:11;;;;;;;6.75;3.75;;;24.60;99.90;;;;;;6168159;23;20067;-87
2022/06/23 09:20:51;;;;;;;4.03;3.65;;;25.00;99.90;;;;;;6169653;23;20016;-88
2022/06/23 09:23:35;;;;;;;6.28;3.80;;;25.00;99.90;;;;;;6168944;23;20043;-91
2022/06/23 09:26:29;;;;;;;5.30;3.45;;;25.50;99.90;;;;;;6173860;23;20027;-91
2022/06/23 09:29:20;;;;;;;4.85;3.75;;;25.80;99.90;;;;;;6168915;23;20012;-91
2022/06/23 09:32:18;;;;;;;4.20;3.80;;;25.80;99.90;;;;;;6131302;23;20016;-89
2022/06/23 09:35:08;;;;;;;4.40;3.65;;;26.40;99.90;;;;;;6183199;23;20068;-89
2022/06/23 09:38:21;;;;;;;6.75;3.80;;;26.60;99.90;;;;;;6173673;23;20012;-88
2022/06/23 09:41:08;;;;;;;4.85;3.55;;;27.00;99.90;;;;;;6176549;23;20008;-90
2022/06/23 09:44:04;;;;;;;4.90;3.13;;;27.00;99.90;;;;;;6170001;23;20012;-90
2022/06/23 09:47:11;;;;;;;4.15;3.65;;;26.80;99.90;;;;;;6211757;23;20024;-94
2022/06/23 09:50:15;;;;;;;4.75;3.08;;;26.60;99.90;;;;;;6169693;23;20091;-89
2022/06/23 09:53:15;;;;;;;5.55;2.78;;;27.40;99.90;;;;;;6174902;23;20019;-90
2022/06/23 09:56:27;;;;;;;3.60;3.17;;;28.00;99.90;;;;;;6153128;23;20009;-91
2022/06/23 09:58:56;;;;;;;4.57;3.42;;;27.80;99.90;;;;;;6132336;23;20067;-89
2022/06/23 10:01:56;;;;;;;4.60;3.08;;;27.80;99.90;;;;;;6184453;23;20020;-88
2022/06/23 10:04:45;;;;;;;6.25;3.03;;;27.90;99.90;;;;;;6180965;23;20047;-91
2022/06/23 10:07:20;;;;;;;4.30;2.78;;;28.50;99.90;;;;;;6170063;23;20017;-91
2022/06/23 10:10:09;;;;;;;3.40;2.42;;;28.50;99.90;;;;;;6175832;23;20013;-89
2022/06/23 10:12:50;;;;;;;2.65;2.45;;;28.50;99.90;;;;;;6173765;23;20013;-92
2022/06/23 10:15:57;;;;;;;4.22;2.30;;;28.50;99.90;;;;;;6176989;23;20008;-91
2022/06/23 10:18:37;;;;;;;3.78;2.75;;;29.00;99.90;;;;;;6174241;23;20098;-91
2022/06/23 10:21:37;;;;;;;4.80;2.92;;;28.80;99.90;;;;;;6173408;23;20012;-92
2022/06/23 10:24:44;;;;;;;2.90;2.60;;;29.00;99.90;;;;;;6170887;23;20013;-94
2022/06/23 10:27:36;;;;;;;2.63;2.10;;;29.20;66.30;;;;;;6141290;23;20039;-93
2022/06/23 10:30:36;;;;;;;2.80;2.40;;;28.90;34.70;;;;;;6147751;23;20019;-93
2022/06/23 10:33:52;;;;;;;4.93;2.35;;;28.60;25.50;;;;;;6169448;23;20320;-91
2022/06/23 10:36:39;;;;;;;4.10;2.47;;;29.00;56.90;;;;;;6101953;23;20073;-91
2022/06/23 10:39:13;;;;;;;3.22;2.25;;;29.00;26.70;;;;;;6061163;23;20022;-92
2022/06/23 10:42:17;;;;;;;2.97;2.40;;;29.20;4.90;;;;;;6146896;23;20020;-92
2022/06/23 10:45:10;;;;;;;2.50;2.20;;;29.10;4.30;;;;;;6173326;23;20012;-95
2022/06/23 10:48:04;;;;;;;4.53;2.80;;;29.20;23.90;;;;;;6179052;23;20012;-92
2022/06/23 10:50:58;;;;;;;3.67;2.70;;;29.30;12.90;;;;;;6180569;23;20028;-94
2022/06/23 10:53:45;;;;;;;2.47;2.28;;;29.10;1.00;;;;;;6170430;23;20012;-93
2022/06/23 10:56:48;;;;;;;5.03;2.22;;;28.70;1.00;;;;;;6188704;23;20009;-95
2022/06/23 10:59:30;;;;;;;3.92;2.53;;;29.10;1.00;;;;;;6152155;23;20020;-92
2022/06/23 11:02:19;;;;;;;4.65;2.28;;;29.20;1.00;;;;;;6174202;23;20023;-92
2022/06/23 11:04:54;;;;;;;2.30;2.10;;;29.20;1.00;;;;;;6173342;23;20051;-94
2022/06/23 11:07:30;;;;;;;2.97;2.53;;;29.30;1.00;;;;;;6180196;23;20154;-94
2022/06/23 11:09:59;;;;;;;3.85;2.53;;;29.60;1.00;;;;;;6177388;23;20082;-95
2022/06/23 11:12:40;;;;;;;2.60;2.40;;;29.50;1.00;;;;;;6173216;23;20023;-92
2022/06/23 11:15:11;;;;;;;2.78;2.28;;;29.60;1.00;;;;;;6171996;23;20093;-91
2022/06/23 11:18:02;;;;;;;6.22;2.80;;;30.00;1.00;;;;;;6181955;23;20021;-94
2022/06/23 11:20:40;;;;;;;2.88;2.58;;;29.50;1.00;;;;;;6177846;23;20016;-93
2022/06/23 11:23:25;;;;;;;3.22;2.33;;;29.40;1.00;;;;;;6180559;23;20024;-94
2022/06/23 11:26:37;;;;;;;4.03;2.45;;;29.10;1.00;;;;;;6178770;23;20038;-93
2022/06/23 11:29:06;;;;;;;4.05;2.30;;;28.60;1.00;;;;;;6115556;23;20018;-94
2022/06/23 11:31:47;;;;;;;2.72;2.53;;;29.40;1.00;;;;;;6153692;23;20059;-94
2022/06/23 11:34:13;;;;;;;4.43;2.53;;;29.60;1.00;;;;;;6169948;23;20008;-91
2022/06/23 11:37:10;;;;;;;3.58;2.40;;;29.80;1.00;;;;;;6174529;23;20131;-91
2022/06/23 11:39:49;;;;;;;3.78;2.42;;;29.80;1.00;;;;;;6179246;23;20079;-91
2022/06/23 11:42:46;;;;;;;3.30;2.42;;;29.80;1.00;;;;;;6178861;23;20071;-90
2022/06/23 11:45:51;;;;;;;3.33;2.50;;;29.80;1.00;;;;;;6185559;23;20020;-89
2022/06/23 11:48:29;;;;;;;;;;;30.30;1.00;;;;;;6186753;23;20024;-90
2022/06/23 11:51:10;;;;;;;4.50;2.22;;;30.40;1.00;;;;;;6176099;23;19962;-91
2022/06/23 11:53:59;;;;;;;3.72;2.63;;;30.60;1.00;;;;;;6183684;23;20009;-91
2022/06/23 11:56:55;;;;;;;2.55;2.22;;;30.90;1.00;;;;;;6176987;23;20070;-91
2022/06/23 11:59:27;;;;;;;3.15;2.35;;;31.00;1.00;;;;;;6173055;23;20064;-90
2022/06/23 12:01:55;;;;;;;3.40;2.40;;;31.40;1.00;;;;;;6184941;23;20015;-91
2022/06/23 12:04:58;;;;;;;3.38;2.35;;;30.80;1.00;;;;;;6156406;23;20024;-91
2022/06/23 12:07:37;;;;;;;5.27;2.60;;;30.80;1.00;;;;;;6177925;23;20016;-91
2022/06/23 12:10:37;;;;;;;3.25;2.17;;;30.70;1.00;;;;;;6177377;23;20338;-93
2022/06/23 12:13:04;;;;;;;3.08;2.40;;;30.80;1.00;;;;;;6172283;23;20074;-91
2022/06/23 12:15:45;;;;;;;2.42;2.13;;;30.60;1.00;;;;;;6149267;23;20341;-90
2022/06/23 12:18:23;;;;;;;4.45;2.25;;;31.00;1.00;;;;;;6172172;23;20508;-91
2022/06/23 12:21:24;;;;;;;3.97;2.20;;;30.60;99.90;;;;;;6184770;23;20103;-90
2022/06/23 12:24:03;;;;;;;3.80;2.40;;;30.40;99.90;;;;;;6182588;23;20079;-89
2022/06/23 12:26:38;;;;;;;2.58;2.22;;;30.50;99.90;;;;;;6173673;23;20028;-91
2022/06/23 12:30:06;;;;;;;2.20;1.90;;;31.00;1.00;;;;;;6173199;23;20024;-92
2022/06/23 12:32:44;;;;;;;6.70;2.45;;;30.90;99.90;;;;;;6164049;23;20016;-90
2022/06/23 12:35:27;;;;;;;2.30;2.00;;;31.30;1.00;;;;;;6169881;23;20024;-93
2022/06/23 12:38:29;;;;;;;1.98;1.85;;;31.10;99.90;;;;;;6170720;23;20067;-92
2022/06/23 12:41:43;;;;;;;2.53;1.90;;;31.00;99.90;;;;;;6112943;23;20009;-94
2022/06/23 12:44:15;;;;;;;3.90;1.98;;;31.00;99.90;;;;;;6169406;23;20020;-92
2022/06/23 12:47:02;;;;;;;2.60;2.00;;;30.80;99.90;;;;;;6170055;23;20020;-92
2022/06/23 12:49:48;;;;;;;2.75;1.90;;;30.50;99.90;;;;;;6179540;23;20064;-93
2022/06/23 12:52:46;;;;;;;2.58;1.65;;;30.60;99.90;;;;;;6170882;23;20013;-92
2022/06/23 12:55:18;;;;;;;2.45;2.17;;;30.60;99.90;;;;;;6175712;23;20052;-92
2022/06/23 13:02:30;;;;;;;3.00;2.10;;;31.60;99.90;;;;;;6213065;23;20023;-92
2022/06/23 13:05:19;;;;;;;3.35;2.13;;;31.10;99.90;;;;;;6068718;23;20018;-94
2022/06/23 13:11:53;;;;;;;3.72;2.08;;;31.50;99.90;;;;;;6161439;23;20475;-92
2022/06/23 13:14:38;;;;;;;2.00;1.90;;;30.90;99.90;;;;;;6073696;23;20022;-91
2022/06/23 13:17:32;;;;;;;2.95;2.03;;;31.10;99.90;;;;;;6165333;23;20017;-92
2022/06/23 13:20:19;;;;;;;3.97;2.63;;;31.00;99.90;;;;;;6107586;23;20097;-91
2022/06/23 13:23:06;;;;;;;2.40;2.10;;;31.40;99.90;;;;;;6189944;23;20067;-93
2022/06/23 13:25:35;;;;;;;3.25;2.10;;;31.60;99.90;;;;;;6170237;23;20029;-93
2022/06/23 13:28:05;;;;;;;2.40;2.15;;;31.40;99.90;;;;;;6175987;23;20016;-92
2022/06/23 13:30:45;;;;;;;2.35;2.15;;;31.80;99.90;;;;;;6182772;23;20013;-94
2022/06/23 13:33:42;;;;;;;3.08;2.10;;;31.90;99.90;;;;;;6173147;23;20054;-92
2022/06/23 13:36:26;;;;;;;3.15;2.33;;;31.60;99.90;;;;;;6169762;23;20009;-95
2022/06/23 13:39:29;;;;;;;2.30;2.00;;;31.70;99.90;;;;;;6169064;23;20048;-95
2022/06/23 13:42:38;;;;;;;3.97;2.35;;;31.70;99.90;;;;;;6169850;23;20013;-92
2022/06/23 13:45:42;;;;;;;2.40;2.20;;;31.50;99.90;;;;;;6158179;23;20017;-94
2022/06/23 13:48:11;;;;;;;2.20;2.00;;;31.70;99.90;;;;;;6171345;23;20625;-92
2022/06/23 13:51:09;;;;;;;3.92;2.10;;;31.80;99.90;;;;;;6170716;23;20017;-93
2022/06/23 13:53:45;;;;;;;2.40;2.00;;;31.70;99.90;;;;;;6171621;23;20416;-93
2022/06/23 13:56:18;;;;;;;2.15;1.95;;;32.10;99.90;;;;;;6166478;23;20099;-91
2022/06/23 13:59:04;;;;;;;2.53;2.33;;;32.40;99.90;;;;;;6168105;23;20035;-93
2022/06/23 14:01:40;;;;;;;2.35;2.15;;;32.30;99.90;;;;;;6189698;23;20016;-91
2022/06/23 14:04:19;;;;;;;2.88;2.30;;;32.40;99.90;;;;;;6175619;23;20104;-93
2022/06/23 14:06:51;;;;;;;2.97;2.22;;;31.90;99.90;;;;;;6167240;23;20063;-90
2022/06/23 14:09:20;;;;;;;4.25;2.30;;;32.00;99.90;;;;;;6168112;23;20066;-91
2022/06/23 14:12:12;;;;;;;3.40;2.28;;;31.70;99.90;;;;;;6170171;23;20023;-91
2022/06/23 14:14:58;;;;;;;3.15;2.25;;;31.70;99.90;;;;;;6183800;23;20009;-90
2022/06/23 14:17:44;;;;;;;3.90;2.40;;;32.10;99.90;;;;;;6178491;23;20013;-92
2022/06/23 14:20:36;;;;;;;3.83;2.20;;;32.10;99.90;;;;;;6176743;23;19997;-93
2022/06/23 14:23:41;;;;;;;2.53;2.33;;;32.10;99.90;;;;;;6171565;23;20087;-90
2022/06/23 14:26:13;;;;;;;3.65;2.15;;;32.10;99.90;;;;;;6167196;23;20013;-89
2022/06/23 14:29:09;;;;;;;2.33;2.10;;;32.80;99.90;;;;;;6167185;23;20019;-94
2022/06/23 14:35:30;;;;;;;3.15;2.60;;;32.50;99.90;;;;;;6146664;23;20063;-93
2022/06/23 14:38:23;;;;;;;3.45;2.35;;;32.50;99.90;;;;;;6187162;23;20021;-91